sensor_id;sensor_type;location;lat;lon;timestamp;pressure;altitude;pressure_sealevel;temperature;humidity
43681;BME280;29281;50.356;30.894;2023-04-29T00:00:21;100269.02;;;5.92;74.10
43681;BME280;29281;50.356;30.894;2023-04-29T00:01:25;100264.54;;;5.94;74.15
43681;BME280;29281;50.356;30.894;2023-04-29T00:02:28;100266.00;;;5.99;74.31
43681;BME280;29281;50.356;30.894;2023-04-29T00:03:34;100268.71;;;5.98;74.55
43681;BME280;29281;50.356;30.894;2023-04-29T00:04:37;100265.86;;;6.03;74.57
43681;BME280;29281;50.356;30.894;2023-04-29T00:05:40;100265.22;;;5.97;74.86
43681;BME280;29281;50.356;30.894;2023-04-29T00:06:43;100258.88;;;6.02;75.03
43681;BME280;29281;50.356;30.894;2023-04-29T00:07:47;100262.30;;;6.04;74.63
43681;BME280;29281;50.356;30.894;2023-04-29T00:08:50;100260.66;;;6.01;74.67
43681;BME280;29281;50.356;30.894;2023-04-29T00:09:56;100265.86;;;6.03;74.25
43681;BME280;29281;50.356;30.894;2023-04-29T00:11:02;100262.58;;;5.97;74.64
43681;BME280;29281;50.356;30.894;2023-04-29T00:12:07;100254.53;;;6.00;74.52
43681;BME280;29281;50.356;30.894;2023-04-29T00:13:13;100253.06;;;5.95;74.72
43681;BME280;29281;50.356;30.894;2023-04-29T00:14:18;100260.80;;;5.98;75.01
43681;BME280;29281;50.356;30.894;2023-04-29T00:15:21;100251.76;;;6.04;74.96
43681;BME280;29281;50.356;30.894;2023-04-29T00:16:25;100254.32;;;6.05;74.37
43681;BME280;29281;50.356;30.894;2023-04-29T00:17:28;100259.14;;;6.14;74.07
43681;BME280;29281;50.356;30.894;2023-04-29T00:18:32;100255.96;;;6.08;75.13
43681;BME280;29281;50.356;30.894;2023-04-29T00:19:37;100253.72;;;6.17;73.88
43681;BME280;29281;50.356;30.894;2023-04-29T00:20:42;100252.47;;;6.07;73.60
43681;BME280;29281;50.356;30.894;2023-04-29T00:21:48;100257.74;;;6.07;73.84
43681;BME280;29281;50.356;30.894;2023-04-29T00:22:52;100248.41;;;6.00;74.40
43681;BME280;29281;50.356;30.894;2023-04-29T00:23:55;100261.52;;;6.02;74.62
43681;BME280;29281;50.356;30.894;2023-04-29T00:24:59;100260.38;;;6.07;75.25
43681;BME280;29281;50.356;30.894;2023-04-29T00:26:02;100255.64;;;6.14;74.37
43681;BME280;29281;50.356;30.894;2023-04-29T00:27:05;100255.72;;;6.12;74.58
43681;BME280;29281;50.356;30.894;2023-04-29T00:28:10;100260.59;;;6.03;75.23
43681;BME280;29281;50.356;30.894;2023-04-29T00:29:14;100264.30;;;5.98;75.62
43681;BME280;29281;50.356;30.894;2023-04-29T00:30:17;100263.44;;;5.98;75.87
43681;BME280;29281;50.356;30.894;2023-04-29T00:31:20;100260.73;;;5.99;76.47
43681;BME280;29281;50.356;30.894;2023-04-29T00:32:23;100256.31;;;6.00;76.05
43681;BME280;29281;50.356;30.894;2023-04-29T00:33:27;100258.48;;;5.92;76.72
43681;BME280;29281;50.356;30.894;2023-04-29T00:34:30;100261.36;;;5.86;77.57
43681;BME280;29281;50.356;30.894;2023-04-29T00:35:36;100257.87;;;5.85;78.06
43681;BME280;29281;50.356;30.894;2023-04-29T00:36:39;100260.58;;;5.84;78.15
43681;BME280;29281;50.356;30.894;2023-04-29T00:37:43;100255.13;;;5.88;77.84
43681;BME280;29281;50.356;30.894;2023-04-29T00:38:48;100261.91;;;5.94;77.86
43681;BME280;29281;50.356;30.894;2023-04-29T00:39:53;100260.80;;;5.98;78.00
43681;BME280;29281;50.356;30.894;2023-04-29T00:40:57;100256.95;;;6.05;77.78
43681;BME280;29281;50.356;30.894;2023-04-29T00:42:01;100258.59;;;6.08;77.94
43681;BME280;29281;50.356;30.894;2023-04-29T00:43:06;100256.75;;;6.10;77.68
43681;BME280;29281;50.356;30.894;2023-04-29T00:44:09;100256.64;;;6.11;76.73
43681;BME280;29281;50.356;30.894;2023-04-29T00:45:12;100254.18;;;6.08;77.54
43681;BME280;29281;50.356;30.894;2023-04-29T00:46:15;100258.81;;;6.03;77.47
43681;BME280;29281;50.356;30.894;2023-04-29T00:47:19;100254.06;;;5.92;77.35
43681;BME280;29281;50.356;30.894;2023-04-29T00:48:22;100253.28;;;5.90;77.37
43681;BME280;29281;50.356;30.894;2023-04-29T00:49:27;100252.89;;;5.98;77.16
43681;BME280;29281;50.356;30.894;2023-04-29T00:50:31;100258.23;;;5.96;76.96
43681;BME280;29281;50.356;30.894;2023-04-29T00:51:35;100251.83;;;6.02;76.69
43681;BME280;29281;50.356;30.894;2023-04-29T00:52:40;100252.75;;;6.01;76.54
43681;BME280;29281;50.356;30.894;2023-04-29T00:53:43;100257.17;;;6.00;76.58
43681;BME280;29281;50.356;30.894;2023-04-29T00:54:50;100258.88;;;6.02;76.87
43681;BME280;29281;50.356;30.894;2023-04-29T00:55:55;100257.48;;;5.94;77.33
43681;BME280;29281;50.356;30.894;2023-04-29T00:57:00;100251.50;;;5.91;77.75
43681;BME280;29281;50.356;30.894;2023-04-29T00:58:03;100250.82;;;5.86;78.06
43681;BME280;29281;50.356;30.894;2023-04-29T00:59:07;100254.38;;;5.85;78.82
43681;BME280;29281;50.356;30.894;2023-04-29T01:00:11;100254.24;;;5.88;78.73
43681;BME280;29281;50.356;30.894;2023-04-29T01:01:17;100261.44;;;5.84;78.73
43681;BME280;29281;50.356;30.894;2023-04-29T01:02:21;100252.74;;;5.82;79.34
43681;BME280;29281;50.356;30.894;2023-04-29T01:03:27;100257.94;;;5.84;79.58
43681;BME280;29281;50.356;30.894;2023-04-29T01:04:31;100260.72;;;5.81;79.83
43681;BME280;29281;50.356;30.894;2023-04-29T01:05:36;100254.97;;;5.73;80.79
43681;BME280;29281;50.356;30.894;2023-04-29T01:07:58;100261.74;;;5.78;80.94
43681;BME280;29281;50.356;30.894;2023-04-29T01:09:23;100261.37;;;5.67;81.42
43681;BME280;29281;50.356;30.894;2023-04-29T01:10:28;100259.17;;;5.77;81.61
43681;BME280;29281;50.356;30.894;2023-04-29T01:11:38;100267.63;;;5.83;80.84
43681;BME280;29281;50.356;30.894;2023-04-29T01:12:52;100273.62;;;5.87;81.42
43681;BME280;29281;50.356;30.894;2023-04-29T01:13:59;100265.67;;;5.88;81.02
43681;BME280;29281;50.356;30.894;2023-04-29T01:15:08;100268.79;;;5.78;80.15
43681;BME280;29281;50.356;30.894;2023-04-29T01:16:16;100276.12;;;5.71;80.39
43681;BME280;29281;50.356;30.894;2023-04-29T01:17:16;100278.81;;;5.70;81.05
43681;BME280;29281;50.356;30.894;2023-04-29T01:20:45;100279.09;;;5.82;80.24
43681;BME280;29281;50.356;30.894;2023-04-29T01:21:55;100271.50;;;5.76;80.33
43681;BME280;29281;50.356;30.894;2023-04-29T01:22:58;100276.83;;;5.75;80.34
43681;BME280;29281;50.356;30.894;2023-04-29T01:24:01;100276.05;;;5.73;80.57
43681;BME280;29281;50.356;30.894;2023-04-29T01:25:06;100269.44;;;5.64;80.50
43681;BME280;29281;50.356;30.894;2023-04-29T01:26:12;100276.96;;;5.53;80.90
43681;BME280;29281;50.356;30.894;2023-04-29T01:27:39;100271.86;;;5.50;81.22
43681;BME280;29281;50.356;30.894;2023-04-29T01:28:53;100265.88;;;5.46;81.02
43681;BME280;29281;50.356;30.894;2023-04-29T01:31:17;100273.41;;;5.54;80.36
43681;BME280;29281;50.356;30.894;2023-04-29T01:32:25;100265.23;;;5.60;80.03
43681;BME280;29281;50.356;30.894;2023-04-29T01:37:21;100282.30;;;5.51;79.69
43681;BME280;29281;50.356;30.894;2023-04-29T01:38:29;100279.96;;;5.45;79.91
43681;BME280;29281;50.356;30.894;2023-04-29T01:40:58;100283.88;;;5.55;79.15
43681;BME280;29281;50.356;30.894;2023-04-29T01:42:09;100288.81;;;5.63;78.45
43681;BME280;29281;50.356;30.894;2023-04-29T01:43:11;100290.72;;;5.59;78.58
43681;BME280;29281;50.356;30.894;2023-04-29T01:44:19;100293.16;;;5.64;78.80
43681;BME280;29281;50.356;30.894;2023-04-29T01:45:24;100295.69;;;5.65;78.41
43681;BME280;29281;50.356;30.894;2023-04-29T01:46:28;100296.48;;;5.68;78.12
43681;BME280;29281;50.356;30.894;2023-04-29T01:47:33;100297.33;;;5.68;78.08
43681;BME280;29281;50.356;30.894;2023-04-29T01:49:51;100296.84;;;5.60;77.83
43681;BME280;29281;50.356;30.894;2023-04-29T01:50:55;100295.78;;;5.64;77.80
43681;BME280;29281;50.356;30.894;2023-04-29T01:51:59;100295.00;;;5.62;77.70
43681;BME280;29281;50.356;30.894;2023-04-29T01:53:02;100292.43;;;5.60;77.83
43681;BME280;29281;50.356;30.894;2023-04-29T01:54:06;100294.21;;;5.60;77.45
43681;BME280;29281;50.356;30.894;2023-04-29T01:55:12;100297.70;;;5.60;77.12
43681;BME280;29281;50.356;30.894;2023-04-29T01:56:21;100290.98;;;5.53;77.24
43681;BME280;29281;50.356;30.894;2023-04-29T01:57:27;100290.86;;;5.56;76.57
43681;BME280;29281;50.356;30.894;2023-04-29T01:58:32;100292.56;;;5.57;76.45
43681;BME280;29281;50.356;30.894;2023-04-29T01:59:54;100295.27;;;5.56;75.98
43681;BME280;29281;50.356;30.894;2023-04-29T02:01:02;100297.33;;;5.68;76.31
43681;BME280;29281;50.356;30.894;2023-04-29T02:02:07;100298.12;;;5.70;75.52
43681;BME280;29281;50.356;30.894;2023-04-29T02:03:13;100294.70;;;5.68;75.53
43681;BME280;29281;50.356;30.894;2023-04-29T02:04:23;100301.81;;;5.66;75.59
43681;BME280;29281;50.356;30.894;2023-04-29T02:05:27;100298.05;;;5.72;74.95
43681;BME280;29281;50.356;30.894;2023-04-29T02:06:32;100300.03;;;5.66;74.58
43681;BME280;29281;50.356;30.894;2023-04-29T02:07:42;100300.27;;;5.62;74.90
43681;BME280;29281;50.356;30.894;2023-04-29T02:08:47;100296.71;;;5.63;75.10
43681;BME280;29281;50.356;30.894;2023-04-29T02:09:52;100297.11;;;5.54;75.09
43681;BME280;29281;50.356;30.894;2023-04-29T02:10:55;100293.86;;;5.49;75.24
43681;BME280;29281;50.356;30.894;2023-04-29T02:12:04;100301.09;;;5.44;75.63
43681;BME280;29281;50.356;30.894;2023-04-29T02:13:08;100292.61;;;5.37;76.46
43681;BME280;29281;50.356;30.894;2023-04-29T02:14:14;100296.55;;;5.47;76.29
43681;BME280;29281;50.356;30.894;2023-04-29T02:15:18;100298.89;;;5.53;75.81
43681;BME280;29281;50.356;30.894;2023-04-29T02:16:21;100305.25;;;5.49;75.99
43681;BME280;29281;50.356;30.894;2023-04-29T02:17:33;100300.11;;;5.46;76.06
43681;BME280;29281;50.356;30.894;2023-04-29T02:18:36;100306.86;;;5.52;75.88
43681;BME280;29281;50.356;30.894;2023-04-29T02:19:40;100307.58;;;5.55;75.87
43681;BME280;29281;50.356;30.894;2023-04-29T02:20:43;100312.91;;;5.54;75.88
43681;BME280;29281;50.356;30.894;2023-04-29T02:21:47;100306.66;;;5.56;75.26
43681;BME280;29281;50.356;30.894;2023-04-29T02:22:52;100313.51;;;5.60;74.57
43681;BME280;29281;50.356;30.894;2023-04-29T02:23:56;100315.22;;;5.61;74.76
43681;BME280;29281;50.356;30.894;2023-04-29T02:24:59;100312.78;;;5.57;74.23
43681;BME280;29281;50.356;30.894;2023-04-29T02:26:05;100313.77;;;5.54;74.51
43681;BME280;29281;50.356;30.894;2023-04-29T02:27:08;100313.15;;;5.49;75.85
43681;BME280;29281;50.356;30.894;2023-04-29T02:28:13;100316.54;;;5.51;74.46
43681;BME280;29281;50.356;30.894;2023-04-29T02:29:19;100306.92;;;5.50;75.17
43681;BME280;29281;50.356;30.894;2023-04-29T02:30:25;100314.14;;;5.47;74.99
43681;BME280;29281;50.356;30.894;2023-04-29T02:31:32;100323.75;;;5.48;75.38
43681;BME280;29281;50.356;30.894;2023-04-29T02:32:35;100322.73;;;5.50;76.77
43681;BME280;29281;50.356;30.894;2023-04-29T02:33:39;100328.79;;;5.52;75.41
43681;BME280;29281;50.356;30.894;2023-04-29T02:34:44;100325.16;;;5.55;75.03
43681;BME280;29281;50.356;30.894;2023-04-29T02:35:48;100324.38;;;5.53;74.44
43681;BME280;29281;50.356;30.894;2023-04-29T02:36:52;100318.25;;;5.52;74.42
43681;BME280;29281;50.356;30.894;2023-04-29T02:37:57;100321.18;;;5.46;74.38
43681;BME280;29281;50.356;30.894;2023-04-29T02:39:01;100323.02;;;5.44;74.48
43681;BME280;29281;50.356;30.894;2023-04-29T02:40:06;100323.69;;;5.49;74.96
43681;BME280;29281;50.356;30.894;2023-04-29T02:41:14;100329.58;;;5.54;74.79
43681;BME280;29281;50.356;30.894;2023-04-29T02:42:16;100325.95;;;5.57;74.43
43681;BME280;29281;50.356;30.894;2023-04-29T02:43:21;100324.25;;;5.56;73.58
43681;BME280;29281;50.356;30.894;2023-04-29T02:44:25;100328.66;;;5.55;73.80
43681;BME280;29281;50.356;30.894;2023-04-29T02:45:33;100326.31;;;5.49;74.24
43681;BME280;29281;50.356;30.894;2023-04-29T02:46:34;100325.66;;;5.44;73.78
43681;BME280;29281;50.356;30.894;2023-04-29T02:47:37;100326.84;;;5.37;74.71
43681;BME280;29281;50.356;30.894;2023-04-29T02:48:40;100327.63;;;5.39;74.35
43681;BME280;29281;50.356;30.894;2023-04-29T02:49:46;100332.27;;;5.34;74.59
43681;BME280;29281;50.356;30.894;2023-04-29T02:50:50;100333.13;;;5.35;74.49
43681;BME280;29281;50.356;30.894;2023-04-29T02:51:53;100329.94;;;5.47;73.99
43681;BME280;29281;50.356;30.894;2023-04-29T02:52:59;100330.40;;;5.36;74.07
43681;BME280;29281;50.356;30.894;2023-04-29T02:54:04;100329.54;;;5.36;74.25
43681;BME280;29281;50.356;30.894;2023-04-29T02:55:07;100337.11;;;5.43;74.31
43681;BME280;29281;50.356;30.894;2023-04-29T02:56:13;100337.97;;;5.44;74.30
43681;BME280;29281;50.356;30.894;2023-04-29T02:57:16;100342.80;;;5.34;74.42
43681;BME280;29281;50.356;30.894;2023-04-29T02:58:21;100334.11;;;5.32;74.62
43681;BME280;29281;50.356;30.894;2023-04-29T02:59:25;100332.90;;;5.39;74.68
43681;BME280;29281;50.356;30.894;2023-04-29T03:00:28;100343.38;;;5.41;74.61
43681;BME280;29281;50.356;30.894;2023-04-29T03:01:36;100337.71;;;5.50;74.50
43681;BME280;29281;50.356;30.894;2023-04-29T03:02:38;100340.77;;;5.59;74.08
43681;BME280;29281;50.356;30.894;2023-04-29T03:03:43;100342.25;;;5.46;74.10
43681;BME280;29281;50.356;30.894;2023-04-29T03:04:46;100348.81;;;5.56;74.18
43681;BME280;29281;50.356;30.894;2023-04-29T03:05:50;100342.55;;;5.59;73.80
43681;BME280;29281;50.356;30.894;2023-04-29T03:06:55;100350.39;;;5.60;73.83
43681;BME280;29281;50.356;30.894;2023-04-29T03:08:00;100349.59;;;5.58;73.86
43681;BME280;29281;50.356;30.894;2023-04-29T03:09:05;100347.55;;;5.65;73.65
43681;BME280;29281;50.356;30.894;2023-04-29T03:10:11;100354.50;;;5.66;73.14
43681;BME280;29281;50.356;30.894;2023-04-29T03:11:14;100351.02;;;5.65;73.36
43681;BME280;29281;50.356;30.894;2023-04-29T03:12:17;100361.78;;;5.61;73.01
43681;BME280;29281;50.356;30.894;2023-04-29T03:13:21;100356.45;;;5.62;73.48
43681;BME280;29281;50.356;30.894;2023-04-29T03:14:25;100357.08;;;5.68;73.33
43681;BME280;29281;50.356;30.894;2023-04-29T03:15:28;100362.08;;;5.74;72.80
43681;BME280;29281;50.356;30.894;2023-04-29T03:16:32;100365.50;;;5.76;72.28
43681;BME280;29281;50.356;30.894;2023-04-29T03:17:36;100368.93;;;5.78;72.65
43681;BME280;29281;50.356;30.894;2023-04-29T03:18:39;100373.05;;;5.64;72.47
43681;BME280;29281;50.356;30.894;2023-04-29T03:19:43;100366.56;;;5.72;72.55
43681;BME280;29281;50.356;30.894;2023-04-29T03:20:49;100372.42;;;5.78;71.40
43681;BME280;29281;50.356;30.894;2023-04-29T03:21:52;100382.23;;;5.75;71.42
43681;BME280;29281;50.356;30.894;2023-04-29T03:22:56;100373.48;;;5.74;71.63
43681;BME280;29281;50.356;30.894;2023-04-29T03:24:00;100375.75;;;5.63;72.78
43681;BME280;29281;50.356;30.894;2023-04-29T03:25:07;100370.05;;;5.72;72.12
43681;BME280;29281;50.356;30.894;2023-04-29T03:26:12;100368.27;;;5.93;71.79
43681;BME280;29281;50.356;30.894;2023-04-29T03:27:20;100370.53;;;6.00;70.47
43681;BME280;29281;50.356;30.894;2023-04-29T03:28:22;100371.69;;;5.95;71.17
43681;BME280;29281;50.356;30.894;2023-04-29T03:29:30;100375.22;;;6.31;70.17
43681;BME280;29281;50.356;30.894;2023-04-29T03:30:34;100370.42;;;6.76;68.56
43681;BME280;29281;50.356;30.894;2023-04-29T03:31:37;100370.36;;;6.94;67.79
43681;BME280;29281;50.356;30.894;2023-04-29T03:32:41;100382.34;;;7.01;66.65
43681;BME280;29281;50.356;30.894;2023-04-29T03:33:45;100376.50;;;6.95;67.28
43681;BME280;29281;50.356;30.894;2023-04-29T03:34:49;100383.71;;;6.91;67.34
43681;BME280;29281;50.356;30.894;2023-04-29T03:35:58;100379.53;;;6.87;66.93
43681;BME280;29281;50.356;30.894;2023-04-29T03:37:07;100379.92;;;6.97;66.78
43681;BME280;29281;50.356;30.894;2023-04-29T03:38:12;100387.85;;;7.14;66.24
43681;BME280;29281;50.356;30.894;2023-04-29T03:39:16;100380.81;;;7.81;65.21
43681;BME280;29281;50.356;30.894;2023-04-29T03:40:19;100386.78;;;8.64;61.34
43681;BME280;29281;50.356;30.894;2023-04-29T03:41:22;100394.88;;;9.37;58.07
43681;BME280;29281;50.356;30.894;2023-04-29T03:42:25;100397.57;;;9.94;55.47
43681;BME280;29281;50.356;30.894;2023-04-29T03:43:28;100390.00;;;10.30;54.95
43681;BME280;29281;50.356;30.894;2023-04-29T03:44:34;100389.39;;;10.80;53.27
43681;BME280;29281;50.356;30.894;2023-04-29T03:45:37;100398.15;;;10.95;52.59
43681;BME280;29281;50.356;30.894;2023-04-29T03:46:41;100400.18;;;11.04;51.36
43681;BME280;29281;50.356;30.894;2023-04-29T03:47:45;100402.73;;;11.71;50.84
43681;BME280;29281;50.356;30.894;2023-04-29T03:48:50;100402.01;;;11.81;49.66
43681;BME280;29281;50.356;30.894;2023-04-29T03:49:55;100410.37;;;11.50;50.55
43681;BME280;29281;50.356;30.894;2023-04-29T03:50:58;100410.28;;;10.99;51.43
43681;BME280;29281;50.356;30.894;2023-04-29T03:52:02;100414.48;;;10.62;52.32
43681;BME280;29281;50.356;30.894;2023-04-29T03:53:05;100411.69;;;9.80;53.09
43681;BME280;29281;50.356;30.894;2023-04-29T03:54:10;100405.50;;;9.51;54.15
43681;BME280;29281;50.356;30.894;2023-04-29T03:55:15;100409.04;;;9.22;54.54
43681;BME280;29281;50.356;30.894;2023-04-29T03:56:18;100417.20;;;9.03;55.23
43681;BME280;29281;50.356;30.894;2023-04-29T03:57:22;100412.07;;;8.70;55.42
43681;BME280;29281;50.356;30.894;2023-04-29T03:58:26;100408.83;;;8.33;57.12
43681;BME280;29281;50.356;30.894;2023-04-29T03:59:30;100408.66;;;8.36;57.74
43681;BME280;29281;50.356;30.894;2023-04-29T04:00:35;100410.87;;;8.44;58.12
43681;BME280;29281;50.356;30.894;2023-04-29T04:01:40;100411.48;;;8.49;57.77
43681;BME280;29281;50.356;30.894;2023-04-29T04:02:45;100415.14;;;8.46;57.33
43681;BME280;29281;50.356;30.894;2023-04-29T04:03:50;100416.25;;;8.42;57.91
43681;BME280;29281;50.356;30.894;2023-04-29T04:04:54;100418.89;;;8.42;58.25
43681;BME280;29281;50.356;30.894;2023-04-29T04:05:59;100417.33;;;8.23;58.24
43681;BME280;29281;50.356;30.894;2023-04-29T04:07:02;100408.70;;;8.19;58.58
43681;BME280;29281;50.356;30.894;2023-04-29T04:08:08;100417.81;;;8.13;58.49
43681;BME280;29281;50.356;30.894;2023-04-29T04:09:32;100416.77;;;8.00;58.56
43681;BME280;29281;50.356;30.894;2023-04-29T04:10:35;100420.37;;;8.15;58.83
43681;BME280;29281;50.356;30.894;2023-04-29T04:11:42;100414.97;;;8.34;58.80
43681;BME280;29281;50.356;30.894;2023-04-29T04:12:46;100418.31;;;8.37;57.98
43681;BME280;29281;50.356;30.894;2023-04-29T04:13:50;100420.19;;;8.35;58.15
43681;BME280;29281;50.356;30.894;2023-04-29T04:14:55;100414.73;;;8.38;57.72
43681;BME280;29281;50.356;30.894;2023-04-29T04:16:01;100410.30;;;8.39;58.14
43681;BME280;29281;50.356;30.894;2023-04-29T04:17:06;100420.59;;;8.43;57.82
43681;BME280;29281;50.356;30.894;2023-04-29T04:18:10;100417.54;;;8.35;57.02
43681;BME280;29281;50.356;30.894;2023-04-29T04:19:14;100416.69;;;8.51;56.85
43681;BME280;29281;50.356;30.894;2023-04-29T04:20:20;100420.52;;;8.61;56.82
43681;BME280;29281;50.356;30.894;2023-04-29T04:21:23;100420.59;;;8.59;56.82
43681;BME280;29281;50.356;30.894;2023-04-29T04:22:29;100418.71;;;8.77;56.35
43681;BME280;29281;50.356;30.894;2023-04-29T04:23:40;100425.09;;;8.89;55.92
43681;BME280;29281;50.356;30.894;2023-04-29T04:24:44;100422.41;;;9.04;55.33
43681;BME280;29281;50.356;30.894;2023-04-29T04:25:49;100419.51;;;9.09;55.02
43681;BME280;29281;50.356;30.894;2023-04-29T04:27:00;100424.42;;;9.31;54.33
43681;BME280;29281;50.356;30.894;2023-04-29T04:28:09;100431.07;;;9.52;54.08
43681;BME280;29281;50.356;30.894;2023-04-29T04:29:14;100416.53;;;10.02;53.07
43681;BME280;29281;50.356;30.894;2023-04-29T04:30:32;100425.72;;;10.80;51.27
43681;BME280;29281;50.356;30.894;2023-04-29T04:31:38;100426.43;;;11.48;49.32
43681;BME280;29281;50.356;30.894;2023-04-29T04:32:42;100439.23;;;12.68;46.25
43681;BME280;29281;50.356;30.894;2023-04-29T04:33:47;100436.63;;;13.51;43.79
43681;BME280;29281;50.356;30.894;2023-04-29T04:34:50;100446.42;;;13.16;43.43
43681;BME280;29281;50.356;30.894;2023-04-29T04:35:53;100435.75;;;12.92;43.74
43681;BME280;29281;50.356;30.894;2023-04-29T04:36:57;100448.63;;;12.98;43.83
43681;BME280;29281;50.356;30.894;2023-04-29T04:38:00;100443.48;;;12.71;44.40
43681;BME280;29281;50.356;30.894;2023-04-29T04:39:04;100443.99;;;12.52;44.72
43681;BME280;29281;50.356;30.894;2023-04-29T04:40:11;100444.56;;;12.68;44.67
43681;BME280;29281;50.356;30.894;2023-04-29T04:41:16;100442.08;;;12.42;44.72
43681;BME280;29281;50.356;30.894;2023-04-29T04:42:23;100447.68;;;12.01;45.70
43681;BME280;29281;50.356;30.894;2023-04-29T04:43:28;100447.62;;;11.62;45.72
43681;BME280;29281;50.356;30.894;2023-04-29T04:44:32;100444.63;;;11.42;45.89
43681;BME280;29281;50.356;30.894;2023-04-29T04:45:41;100454.02;;;11.60;45.95
43681;BME280;29281;50.356;30.894;2023-04-29T04:46:45;100454.05;;;12.36;44.31
43681;BME280;29281;50.356;30.894;2023-04-29T04:47:56;100452.97;;;13.47;42.71
43681;BME280;29281;50.356;30.894;2023-04-29T04:49:01;100444.39;;;14.45;40.94
43681;BME280;29281;50.356;30.894;2023-04-29T04:50:04;100454.09;;;14.35;40.54
43681;BME280;29281;50.356;30.894;2023-04-29T04:51:11;100456.59;;;13.92;40.01
43681;BME280;29281;50.356;30.894;2023-04-29T04:52:20;100468.57;;;13.75;40.23
43681;BME280;29281;50.356;30.894;2023-04-29T04:53:26;100457.98;;;14.53;40.23
43681;BME280;29281;50.356;30.894;2023-04-29T04:54:31;100461.23;;;15.75;37.93
43681;BME280;29281;50.356;30.894;2023-04-29T04:55:37;100465.72;;;16.77;35.65
43681;BME280;29281;50.356;30.894;2023-04-29T04:56:43;100470.11;;;18.13;34.03
43681;BME280;29281;50.356;30.894;2023-04-29T04:57:48;100475.38;;;19.24;32.29
43681;BME280;29281;50.356;30.894;2023-04-29T04:58:54;100477.91;;;19.79;31.11
43681;BME280;29281;50.356;30.894;2023-04-29T05:00:03;100486.09;;;20.39;30.20
43681;BME280;29281;50.356;30.894;2023-04-29T05:01:07;100491.72;;;20.87;29.24
43681;BME280;29281;50.356;30.894;2023-04-29T05:02:11;100494.25;;;21.47;28.77
43681;BME280;29281;50.356;30.894;2023-04-29T05:03:15;100503.03;;;21.57;27.54
43681;BME280;29281;50.356;30.894;2023-04-29T05:04:18;100506.06;;;21.54;27.71
43681;BME280;29281;50.356;30.894;2023-04-29T05:05:22;100508.80;;;21.95;27.21
43681;BME280;29281;50.356;30.894;2023-04-29T05:06:26;100506.26;;;22.89;26.54
43681;BME280;29281;50.356;30.894;2023-04-29T05:07:34;100512.56;;;23.12;25.78
43681;BME280;29281;50.356;30.894;2023-04-29T05:08:41;100527.62;;;22.68;25.62
43681;BME280;29281;50.356;30.894;2023-04-29T05:09:46;100522.02;;;22.77;25.07
43681;BME280;29281;50.356;30.894;2023-04-29T05:10:52;100524.23;;;22.74;25.25
43681;BME280;29281;50.356;30.894;2023-04-29T05:11:56;100528.91;;;22.25;26.11
43681;BME280;29281;50.356;30.894;2023-04-29T05:13:02;100530.44;;;22.27;26.25
43681;BME280;29281;50.356;30.894;2023-04-29T05:14:07;100530.91;;;22.39;25.92
43681;BME280;29281;50.356;30.894;2023-04-29T05:15:10;100526.23;;;21.18;26.84
43681;BME280;29281;50.356;30.894;2023-04-29T05:16:15;100532.41;;;21.36;27.15
43681;BME280;29281;50.356;30.894;2023-04-29T05:17:20;100521.81;;;21.83;26.20
43681;BME280;29281;50.356;30.894;2023-04-29T05:18:26;100522.03;;;22.69;25.34
43681;BME280;29281;50.356;30.894;2023-04-29T05:19:29;100523.17;;;23.53;24.92
43681;BME280;29281;50.356;30.894;2023-04-29T05:20:32;100527.67;;;24.06;24.56
43681;BME280;29281;50.356;30.894;2023-04-29T05:21:36;100532.62;;;24.26;23.83
43681;BME280;29281;50.356;30.894;2023-04-29T05:22:40;100538.92;;;24.56;23.37
43681;BME280;29281;50.356;30.894;2023-04-29T05:23:45;100543.02;;;24.14;23.43
43681;BME280;29281;50.356;30.894;2023-04-29T05:24:48;100541.42;;;24.05;23.94
43681;BME280;29281;50.356;30.894;2023-04-29T05:25:52;100539.14;;;23.71;24.05
43681;BME280;29281;50.356;30.894;2023-04-29T05:26:56;100552.98;;;22.83;24.44
43681;BME280;29281;50.356;30.894;2023-04-29T05:28:01;100544.47;;;22.94;24.82
43681;BME280;29281;50.356;30.894;2023-04-29T05:29:06;100542.93;;;23.00;24.44
43681;BME280;29281;50.356;30.894;2023-04-29T05:30:12;100541.19;;;23.07;24.96
43681;BME280;29281;50.356;30.894;2023-04-29T05:31:16;100552.39;;;22.32;24.63
43681;BME280;29281;50.356;30.894;2023-04-29T05:32:21;100537.78;;;23.13;24.58
43681;BME280;29281;50.356;30.894;2023-04-29T05:33:26;100539.53;;;23.68;24.45
43681;BME280;29281;50.356;30.894;2023-04-29T05:34:30;100534.33;;;23.58;24.51
43681;BME280;29281;50.356;30.894;2023-04-29T05:35:36;100544.89;;;23.45;23.82
43681;BME280;29281;50.356;30.894;2023-04-29T05:36:42;100550.13;;;22.68;24.36
43681;BME280;29281;50.356;30.894;2023-04-29T05:37:47;100547.66;;;22.34;25.17
43681;BME280;29281;50.356;30.894;2023-04-29T05:38:55;100543.16;;;22.90;24.98
43681;BME280;29281;50.356;30.894;2023-04-29T05:40:00;100549.03;;;22.22;25.08
43681;BME280;29281;50.356;30.894;2023-04-29T05:41:04;100545.61;;;21.71;26.47
43681;BME280;29281;50.356;30.894;2023-04-29T05:42:17;100543.43;;;21.91;26.04
43681;BME280;29281;50.356;30.894;2023-04-29T05:43:22;100543.94;;;21.79;26.09
43681;BME280;29281;50.356;30.894;2023-04-29T05:44:27;100540.98;;;21.23;25.97
43681;BME280;29281;50.356;30.894;2023-04-29T05:45:31;100547.25;;;20.12;26.97
43681;BME280;29281;50.356;30.894;2023-04-29T05:46:33;100538.78;;;19.36;28.27
43681;BME280;29281;50.356;30.894;2023-04-29T05:47:39;100536.64;;;19.12;28.56
43681;BME280;29281;50.356;30.894;2023-04-29T05:48:42;100533.53;;;20.06;27.97
43681;BME280;29281;50.356;30.894;2023-04-29T05:49:45;100535.37;;;20.05;27.76
43681;BME280;29281;50.356;30.894;2023-04-29T05:50:50;100535.66;;;20.20;27.28